AirNav   Everest Fuels
 
 923 users online  

0FD3 Dugger Field Airport
Freeport, Florida, USA

GOING TO FREEPORT?


FAA INFORMATION EFFECTIVE 18 JUNE 2020

Location

FAA Identifier: 0FD3
Lat/Long: 30-29-47.1000N 086-05-37.8000W
30-29.785000N 086-05.630000W
30.4964167,-86.0938333
(estimated)
Elevation: 70 ft. / 21 m (estimated)
From city: 3 miles E of FREEPORT, FL
Time zone: UTC -5 (UTC -6 during Standard Time)
Zip code: 32439

Airport Operations

Airport use: Private use. Permission required prior to landing
Activation date: 10/2005
Control tower: no
ARTCC: JACKSONVILLE CENTER
FSS: GAINESVILLE FLIGHT SERVICE STATION
Attendance: UNATNDD
Segmented circle: no

Airport Communications

WX AWOS-3P at 54J (14 nm N): 118.725 (850-892-0147)
WX ASOS at ECP (18 nm SE): 119.975 (850-235-7857)

Nearby radio navigation aids

VOR radial/distance  VOR name  Freq  Var
CEWr120/36.1CRESTVIEW VORTAC115.9003E

 
NDB name  Hdg/Dist  Freq  Var  ID
LYNNE306/19.127804WPFN .--. ..-. -.

Airport Services

Runway Information

Runway 13/31

Dimensions: 4000 x 40 ft. / 1219 x 12 m
Surface: turf
RUNWAY 13  RUNWAY 31
Traffic pattern: leftleft

Runway 8/26

Dimensions: 2100 x 50 ft. / 640 x 15 m
Surface: turf
RUNWAY 8  RUNWAY 26
Traffic pattern: leftleft

Airport Ownership and Management from official FAA records

Ownership: Privately-owned
Owner: MELODY BOGLE
259 SAN JUAN AVE
SEA GROVE BEACH, FL 32459
Phone 850-231-3644
Manager: MELODY BOGLE
259 SAN JUAN AVE
SEA GROVE BEACH, FL 32459
Phone 850-231-3644

Additional Remarks

FOR CD CTC EGLIN APCH 850-882-9152 OR 850-882-9151.

Instrument Procedures

There are no published instrument procedures at 0FD3.

Some nearby airports with instrument procedures:

54J - DeFuniak Springs Airport (14 nm N)
KECP - Northwest Florida Beaches International Airport (18 nm SE)
KDTS - Destin Executive Airport (20 nm W)
KVPS - Eglin Air Force Base/Destin-Fort Walton Beach Airport (22 nm W)
KEGI - Duke Field (Eglin AF Aux Nr 3) Airport (24 nm NW)
 
Loc | Ops | Rwys | IFR | FBO | Links
Com | Nav | Svcs | Stats | Notes

Continental Services
AirBoss

 
Area around 0FD3 (Dugger Field Airport)
 
Road maps at: MapQuest Bing Google
 
Aerial photo
No photo
 
Sectional chart

 
Airport distance calculator
Flying to Dugger Field Airport? Find the distance to fly.

From to 0FD3

Sunrise and sunset
Times for 05-Jul-2020
 Local
(UTC-5)
 Zulu
(UTC)
Morning civil twilight05:2110:21
Sunrise05:4910:49
Sunset19:4900:49
Evening civil twilight20:1701:17

Current date and time
Zulu (UTC)  05-Jul-2020 14:27:09
Local (UTC-5)  05-Jul-2020 09:27:09
 
METAR
K54J 
14nm N 
051415Z AUTO 00000KT 10SM BKN013 OVC018 26/22 A2996 RMK AO2 LTG DSNT S AND SW T02560224
KECP 
18nm SE 
051353Z 00000KT 10SM VCTS SCT018 BKN065 27/22 A2994 RMK AO2 SLP148 T02670222 $
KDTS 
20nm W 
051353Z VRB04KT 4SM RA BR OVC110 24/22 A2994 RMK AO2 LTG DSNT SW AND W SLP137 P0016 T02390222
KVPS 
22nm W 
051405Z AUTO 17006KT 10SM -RA FEW006 24/24 A2993 RMK AO2 SLP141 $
KEGI 
23nm W 
051356Z AUTO 18009KT 10SM FEW160 25/22 A2993 RMK AO2 SLP134 T02530222 $
KCEW 
27nm NW 
051414Z AUTO 19004KT 10SM FEW014 BKN025 BKN047 27/23 A2995 RMK AO2 T02720228
TAF
KECP 
18nm SE 
051120Z 0512/0612 00000KT 5SM BR BKN120 FM051300 19008KT P6SM VCSH BKN035
NOTAMs
Click for the latest NOTAMs
NOTAMs are issued by the DoD/FAA and will open in a separate window not controlled by AirNav.

 

 
 

Would you like to see your business listed on this page?

 If your business provides an interesting product or service to pilots, flight crews, aircraft, or users of the Dugger Field Airport, you should consider listing it here.  To start the listing process, click on the button below
 
Add a business
 

Other Pages about Dugger Field Airport

Update a link
 
Copyright © AirNav, LLC. All rights reserved. Privacy Policy  Contact